Terminal Aerodrome Forecast
Issued by NWS

Home | Current Version | Previous Version | Text Only | Print | Product List | Glossary On
Versions: 1 2 3 4 5 6 7 8 9 10 11 12 13 14 15 16 17 18 19 20 21 22 23 24
000
FTUS46 KLOX 230216 AAA
TAFOXR
TAF AMD
KOXR 230216Z 2302/2324 26012KT P6SM BKN015
     FM230800 27006KT P6SM BKN025
     FM231800 26012KT P6SM SCT035=

USA.gov is the U.S. government's official web portal to all federal, state and local government web resources and services.